Time;durP1;ratioP1;P1;durP2;ratioP2;P2;SDS_P1;SDS_P2;PMS_P1;PMS_P2;Temp;Humidity;BMP_temperature;BMP_pressure;BME280_temperature;BME280_humidity;BME280_pressure;Samples;Min_cycle;Max_cycle;Signal;HPM_P1;HPM_P2
2023/08/09 00:01:34;;;;;;;3.83;1.90;;;14.30;99.90;;;13.77;83.38;100450.53;5053252;28;20193;-75
2023/08/09 00:04:07;;;;;;;2.70;1.90;;;14.20;99.90;;;13.73;83.21;100443.88;5052809;28;20708;-75
2023/08/09 00:06:40;;;;;;;4.33;1.83;;;14.20;99.90;;;13.69;83.52;100446.09;5053238;28;20218;-75
2023/08/09 00:09:12;;;;;;;4.27;1.80;;;14.20;99.90;;;13.71;83.46;100444.03;5052867;28;20194;-75
2023/08/09 00:11:44;;;;;;;4.73;2.20;;;14.20;99.90;;;13.70;83.84;100440.50;5053158;28;20214;-75
2023/08/09 00:14:16;;;;;;;3.33;2.00;;;14.20;99.90;;;13.70;84.09;100445.06;5053031;28;20313;-75
2023/08/09 00:16:48;;;;;;;2.90;1.83;;;14.20;99.90;;;13.69;83.70;100441.56;5053125;28;20268;-75
2023/08/09 00:19:20;;;;;;;2.23;2.03;;;14.20;99.90;;;13.65;83.80;100426.81;5053101;28;20194;-75
2023/08/09 00:21:53;;;;;;;3.40;2.20;;;14.20;99.90;;;13.63;83.87;100420.75;5053063;28;20229;-75
2023/08/09 00:24:25;;;;;;;3.60;2.00;;;14.20;99.90;;;13.57;84.33;100416.13;5053055;28;20186;-75
2023/08/09 00:26:57;;;;;;;2.33;2.13;;;14.20;99.90;;;13.58;84.25;100414.28;5053046;28;20194;-75
2023/08/09 00:29:29;;;;;;;3.00;2.17;;;14.10;99.90;;;13.58;84.58;100415.13;5054476;28;20198;-75
2023/08/09 00:32:01;;;;;;;4.60;1.80;;;14.10;99.90;;;13.60;84.21;100418.44;5056486;28;20285;-75
2023/08/09 00:34:33;;;;;;;3.80;2.00;;;14.10;99.90;;;13.57;84.31;100428.75;5056782;28;20240;-75
2023/08/09 00:37:06;;;;;;;2.17;1.90;;;14.10;99.90;;;13.57;84.30;100429.59;5056401;28;20204;-75
2023/08/09 00:39:38;;;;;;;4.60;2.13;;;14.10;99.90;;;13.57;84.18;100432.28;5056474;28;20735;-75
2023/08/09 00:42:09;;;;;;;3.03;1.90;;;14.10;99.90;;;13.64;84.20;100425.13;5056299;28;20731;-75
2023/08/09 00:44:41;;;;;;;3.10;1.83;;;14.20;99.90;;;13.62;83.67;100416.41;5056313;28;20632;-75
2023/08/09 00:47:14;;;;;;;4.70;1.60;;;14.10;99.90;;;13.64;83.54;100429.66;5056273;28;20304;-75
2023/08/09 00:49:46;;;;;;;3.47;1.83;;;14.10;99.90;;;13.58;83.76;100436.66;5056618;28;20194;-75
2023/08/09 00:52:22;;;;;;;3.90;1.93;;;14.10;99.90;;;13.61;83.61;100435.44;5056432;28;20318;-75
2023/08/09 00:54:57;;;;;;;3.57;2.10;;;14.10;99.90;;;13.62;83.51;100440.63;5056506;28;20293;-75
2023/08/09 00:57:29;;;;;;;2.93;1.80;;;14.10;99.90;;;13.65;83.51;100432.19;5056107;28;20659;-75
2023/08/09 01:00:01;;;;;;;2.67;1.80;;;14.10;99.90;;;13.67;83.32;100440.06;5056057;28;20735;-75
2023/08/09 01:02:33;;;;;;;3.20;1.60;;;14.20;99.90;;;13.66;83.40;100428.44;5056229;28;20288;-75
2023/08/09 01:05:05;;;;;;;2.80;1.90;;;14.20;99.90;;;13.62;83.49;100434.41;5056277;28;20229;-75
2023/08/09 01:07:46;;;;;;;3.70;1.80;;;14.10;99.90;;;13.65;83.32;100437.56;5055932;28;20190;-75
2023/08/09 01:10:27;;;;;;;3.13;2.40;;;14.10;99.90;;;13.64;83.42;100430.50;5056150;28;20237;-75
2023/08/09 01:13:06;;;;;;;3.97;2.17;;;14.10;99.90;;;13.62;83.73;100443.31;5056056;28;20230;-75
2023/08/09 01:15:42;;;;;;;2.83;1.90;;;14.10;99.90;;;13.63;83.40;100430.72;5056004;28;20238;-75
2023/08/09 01:18:15;;;;;;;2.20;1.70;;;14.10;99.90;;;13.67;83.52;100414.00;5056002;28;20197;-75
2023/08/09 01:20:50;;;;;;;4.67;1.67;;;14.20;99.90;;;13.69;82.94;100422.72;5055642;28;20552;-75
2023/08/09 01:23:24;;;;;;;2.83;1.90;;;14.20;99.90;;;13.68;83.01;100428.28;5055556;28;20695;-75
2023/08/09 01:25:58;;;;;;;2.87;1.60;;;14.20;99.90;;;13.70;83.12;100434.28;5055914;28;20190;-75
2023/08/09 01:28:29;;;;;;;9.20;2.17;;;14.20;99.90;;;13.66;82.98;100435.72;5055842;28;20274;-75
2023/08/09 01:31:04;;;;;;;3.53;2.00;;;14.10;99.90;;;13.64;83.51;100437.75;5055769;28;20285;-75
2023/08/09 01:33:37;;;;;;;2.07;1.67;;;14.20;99.90;;;13.66;83.18;100444.59;5056411;28;20256;-75
2023/08/09 01:36:16;;;;;;;2.90;1.70;;;14.10;99.90;;;13.66;83.44;100438.41;5055605;28;20210;-75
2023/08/09 01:38:55;;;;;;;2.43;1.90;;;14.10;99.90;;;13.62;82.79;100437.94;5055684;28;20284;-76
2023/08/09 01:41:29;;;;;;;3.73;1.60;;;14.10;99.90;;;13.58;83.80;100442.03;5054950;28;20565;-76
2023/08/09 01:44:01;;;;;;;3.53;1.83;;;14.00;99.90;;;13.57;82.98;100451.09;5055468;28;20317;-76
2023/08/09 01:46:35;;;;;;;4.17;1.80;;;14.00;99.90;;;13.56;83.01;100459.38;5055140;28;20318;-76
2023/08/09 01:49:17;;;;;;;2.03;1.83;;;14.00;99.90;;;13.56;83.37;100470.94;5055445;28;20201;-76
2023/08/09 01:51:49;;;;;;;2.83;1.60;;;14.00;99.90;;;13.52;82.83;100471.53;5055371;28;20559;-76
2023/08/09 01:54:23;;;;;;;2.97;1.90;;;13.90;99.90;;;13.52;82.80;100474.22;5055284;28;20276;-76
2023/08/09 01:56:57;;;;;;;1.73;1.63;;;14.00;99.90;;;13.53;82.92;100470.47;5054889;28;20787;-76
2023/08/09 01:59:29;;;;;;;2.50;1.60;;;14.00;99.90;;;13.49;82.92;100475.41;5055273;28;20200;-76
2023/08/09 02:02:01;;;;;;;4.03;2.00;;;13.90;99.90;;;13.49;82.81;100470.00;5055156;28;20277;-76
2023/08/09 02:04:33;;;;;;;3.40;1.60;;;13.90;99.90;;;13.48;82.53;100470.22;5055131;28;20195;-76
2023/08/09 02:07:06;;;;;;;2.33;1.80;;;13.90;99.90;;;13.47;82.42;100469.38;5055112;28;20285;-76
2023/08/09 02:09:37;;;;;;;4.27;1.93;;;13.90;99.90;;;13.44;82.43;100464.38;5054756;28;20240;-76
2023/08/09 02:12:11;;;;;;;2.00;1.80;;;13.90;99.90;;;13.39;82.44;100469.47;5054963;28;20222;-76
2023/08/09 02:14:43;;;;;;;4.30;1.87;;;13.80;99.90;;;13.36;82.42;100464.44;5054966;28;20190;-76
2023/08/09 02:17:15;;;;;;;3.40;2.07;;;13.80;99.90;;;13.33;81.97;100463.97;5054847;28;20211;-76
2023/08/09 02:19:46;;;;;;;3.27;1.70;;;13.80;99.90;;;13.33;82.28;100454.06;5054869;28;20285;-76
2023/08/09 02:22:21;;;;;;;1.90;1.70;;;13.80;99.90;;;13.29;82.98;100458.16;5054754;28;20253;-76
2023/08/09 02:24:53;;;;;;;3.00;1.87;;;13.80;99.90;;;13.28;82.78;100451.13;5054734;28;20222;-76
2023/08/09 02:27:26;;;;;;;3.50;2.00;;;13.70;99.90;;;13.23;82.52;100455.34;5054409;28;20221;-76
2023/08/09 02:29:58;;;;;;;3.27;1.90;;;13.60;99.90;;;13.23;82.57;100452.66;5054384;28;20691;-76
2023/08/09 02:32:30;;;;;;;3.10;2.10;;;13.60;99.90;;;13.23;82.67;100452.66;5054536;28;20313;-76
2023/08/09 02:35:02;;;;;;;5.13;1.80;;;13.60;99.90;;;13.21;82.90;100444.81;5054579;28;20244;-76
2023/08/09 02:37:35;;;;;;;3.87;1.97;;;13.60;99.90;;;13.22;82.88;100457.22;5054142;28;20628;-76
2023/08/09 02:40:10;;;;;;;4.40;1.60;;;13.60;99.90;;;13.22;82.36;100457.22;5054518;28;20186;-76
2023/08/09 02:42:44;;;;;;;4.90;2.10;;;13.70;99.90;;;13.17;82.92;100459.63;5054348;28;20252;-76
2023/08/09 02:45:16;;;;;;;7.03;2.10;;;13.60;99.90;;;13.15;82.28;100464.38;5054036;28;20197;-76
2023/08/09 02:47:47;;;;;;;4.37;2.10;;;13.60;99.90;;;13.10;82.95;100464.06;5053881;28;20210;-76
2023/08/09 02:50:20;;;;;;;4.67;1.90;;;13.50;99.90;;;13.13;83.51;100463.69;5054250;28;20194;-76
2023/08/09 02:52:52;;;;;;;5.37;2.37;;;13.60;99.90;;;13.03;83.78;100465.78;5053461;28;20301;-76
2023/08/09 02:55:24;;;;;;;7.90;2.10;;;13.50;99.90;;;13.02;83.43;100472.16;5054164;28;20285;-76
2023/08/09 02:57:57;;;;;;;3.60;2.10;;;13.40;99.90;;;13.02;83.24;100474.84;5054072;28;20221;-76
2023/08/09 03:00:29;;;;;;;4.33;1.90;;;13.50;99.90;;;13.06;83.38;100489.59;5053809;28;20684;-76
2023/08/09 03:03:04;;;;;;;7.67;2.60;;;13.50;99.90;;;13.03;82.78;100479.22;5053987;28;20287;-76
2023/08/09 03:05:36;;;;;;;5.70;2.60;;;13.50;99.90;;;12.96;83.53;100483.66;5053702;28;20186;-76
2023/08/09 03:08:08;;;;;;;6.73;2.27;;;13.40;99.90;;;12.86;84.38;100483.91;5053642;28;20617;-76
2023/08/09 03:10:41;;;;;;;8.90;2.50;;;13.30;99.90;;;12.88;84.14;100481.88;5053589;28;20652;-76
2023/08/09 03:13:14;;;;;;;5.63;2.70;;;13.30;99.90;;;12.86;84.47;100489.28;5053782;28;20225;-76
2023/08/09 03:15:46;;;;;;;7.13;2.50;;;13.30;99.90;;;12.86;84.26;100485.75;5053507;28;20222;-76
2023/08/09 03:18:18;;;;;;;6.03;2.80;;;13.30;99.90;;;12.84;84.43;100485.13;5053709;28;20221;-76
2023/08/09 03:20:50;;;;;;;3.83;2.40;;;13.30;99.90;;;12.83;85.03;100483.44;5053767;28;20285;-76
2023/08/09 03:23:22;;;;;;;6.20;2.60;;;13.30;99.90;;;12.87;84.63;100490.13;5053627;28;20228;-76
2023/08/09 03:25:54;;;;;;;3.97;2.30;;;13.30;99.90;;;12.81;83.76;100485.47;5053672;28;20225;-76
2023/08/09 03:28:27;;;;;;;2.60;1.93;;;13.30;99.90;;;12.81;84.70;100498.91;5053320;28;20632;-76
2023/08/09 03:30:59;;;;;;;3.50;2.40;;;13.30;99.90;;;12.78;84.49;100501.94;5053640;28;20301;-76
2023/08/09 03:33:31;;;;;;;3.50;2.30;;;13.20;99.90;;;12.68;85.42;100507.56;5053467;28;20316;-76
2023/08/09 03:36:04;;;;;;;3.40;2.10;;;13.10;99.90;;;12.65;86.25;100508.75;5053519;28;20194;-76
2023/08/09 03:38:35;;;;;;;5.60;2.40;;;13.10;99.90;;;12.66;84.97;100514.97;5053199;28;20190;-76
2023/08/09 03:41:07;;;;;;;5.17;2.20;;;13.10;99.90;;;12.68;84.32;100511.09;5053492;28;20277;-76
2023/08/09 03:43:40;;;;;;;3.07;2.60;;;13.20;99.90;;;12.69;84.83;100519.97;5053368;28;20313;-76
2023/08/09 03:46:12;;;;;;;3.43;2.30;;;13.20;99.90;;;12.67;85.73;100528.19;5053283;28;20320;-76
2023/08/09 03:48:44;;;;;;;4.57;2.33;;;13.10;99.90;;;12.66;85.35;100523.88;5053839;28;20194;-74
2023/08/09 03:51:17;;;;;;;3.53;2.73;;;13.10;99.90;;;12.63;85.76;100526.06;5053428;28;20619;-75
2023/08/09 03:53:49;;;;;;;4.30;2.47;;;13.10;99.90;;;12.54;86.42;100537.88;5053275;28;20313;-75
2023/08/09 03:56:21;;;;;;;3.03;2.20;;;13.00;99.90;;;12.61;86.34;100534.28;5053321;28;20273;-75
2023/08/09 03:58:55;;;;;;;6.00;2.67;;;13.10;99.90;;;12.62;86.05;100535.97;5053325;28;20593;-75
2023/08/09 04:01:27;;;;;;;4.80;2.50;;;13.10;99.90;;;12.51;86.74;100539.06;5053031;28;20659;-75
2023/08/09 04:03:59;;;;;;;3.90;2.90;;;13.00;99.90;;;12.51;87.21;100547.13;5055343;28;20729;-75
2023/08/09 04:06:31;;;;;;;7.57;3.50;;;12.90;99.90;;;12.42;87.58;100558.94;5057399;28;20289;-75
2023/08/09 04:09:03;;;;;;;6.73;3.13;;;12.90;99.90;;;12.42;87.98;100545.50;5056957;28;20742;-75
2023/08/09 04:11:35;;;;;;;5.70;3.47;;;12.90;99.90;;;12.49;88.25;100541.09;5056928;28;20598;-76
2023/08/09 04:14:09;;;;;;;6.57;3.37;;;13.00;99.90;;;12.48;87.63;100547.47;5057193;28;20265;-76
2023/08/09 04:16:41;;;;;;;8.47;3.60;;;12.90;99.90;;;12.46;88.92;100557.56;5056785;28;20236;-76
2023/08/09 04:19:12;;;;;;;9.30;3.50;;;12.90;99.90;;;12.44;88.88;100556.91;5056798;28;20664;-76
2023/08/09 04:21:45;;;;;;;6.57;3.50;;;12.90;99.90;;;12.50;88.13;100558.88;5057091;28;20269;-74
2023/08/09 04:24:17;;;;;;;9.10;3.57;;;13.00;99.90;;;12.40;88.34;100574.38;5056986;28;20222;-75
2023/08/09 04:26:49;;;;;;;10.50;3.63;;;12.90;99.90;;;12.43;88.18;100574.00;5056893;28;20229;-76
2023/08/09 04:29:23;;;;;;;7.17;3.90;;;12.90;99.90;;;12.36;89.25;100573.06;5056958;28;20229;-76
2023/08/09 04:31:56;;;;;;;7.80;3.93;;;12.80;99.90;;;12.35;90.16;100582.13;5056606;28;20190;-73
2023/08/09 04:34:28;;;;;;;9.20;3.47;;;12.80;99.90;;;12.38;89.40;100580.94;5056883;28;20285;-75
2023/08/09 04:37:00;;;;;;;8.23;4.10;;;12.90;99.90;;;12.42;89.42;100579.56;5056749;28;20226;-75
2023/08/09 04:39:33;;;;;;;9.00;3.87;;;12.90;99.90;;;12.43;89.93;100584.75;5056433;28;20627;-75
2023/08/09 04:42:05;;;;;;;6.33;4.00;;;12.90;99.90;;;12.42;90.15;100577.72;5056331;28;20226;-75
2023/08/09 04:44:39;;;;;;;6.67;3.80;;;12.90;99.90;;;12.40;89.75;100590.47;5056704;28;20190;-75
2023/08/09 04:47:12;;;;;;;5.37;4.10;;;12.90;99.90;;;12.41;90.03;100583.25;5056208;28;20300;-75
2023/08/09 04:49:43;;;;;;;7.77;4.63;;;12.90;99.90;;;12.35;91.00;100583.97;5056528;28;20273;-75
2023/08/09 04:52:15;;;;;;;7.50;5.03;;;12.90;99.90;;;12.29;91.20;100582.00;5056467;28;20190;-75
2023/08/09 04:54:47;;;;;;;7.47;4.80;;;12.80;99.90;;;12.24;92.61;100577.13;5057414;28;20210;-76
2023/08/09 04:57:20;;;;;;;6.07;4.20;;;12.70;99.90;;;12.30;92.23;100584.47;5056395;28;20297;-76
2023/08/09 04:59:53;;;;;;;10.37;5.43;;;12.80;99.90;;;12.30;92.09;100584.47;5056330;28;20272;-76
2023/08/09 05:02:25;;;;;;;12.13;5.10;;;12.80;99.90;;;12.25;92.21;100586.88;5055970;28;20273;-76
2023/08/09 05:04:57;;;;;;;11.00;5.77;;;12.70;99.90;;;12.27;92.08;100584.84;5056304;28;20195;-76
2023/08/09 05:07:29;;;;;;;8.80;5.43;;;12.80;99.90;;;12.27;92.01;100590.22;5056247;28;20190;-76
2023/08/09 05:10:03;;;;;;;11.03;6.53;;;12.80;99.90;;;12.22;92.81;100592.59;5056221;28;20197;-75
2023/08/09 05:12:35;;;;;;;11.93;5.70;;;12.70;99.90;;;12.24;92.45;100590.56;5056102;28;20268;-75
2023/08/09 05:15:12;;;;;;;12.20;5.80;;;12.80;99.90;;;12.26;92.68;100599.25;5055651;28;20190;-76
2023/08/09 05:17:44;;;;;;;10.03;6.10;;;12.80;99.90;;;12.29;92.37;100601.63;5055655;28;20245;-76
2023/08/09 05:20:16;;;;;;;9.37;5.67;;;12.80;99.90;;;12.27;92.50;100605.47;5056004;28;20226;-76
2023/08/09 05:22:48;;;;;;;11.90;6.27;;;12.80;99.90;;;12.24;93.21;100612.03;5055971;28;20302;-76
2023/08/09 05:25:21;;;;;;;12.87;6.23;;;12.80;99.90;;;12.27;93.63;100611.69;5055962;28;20194;-76
2023/08/09 05:27:53;;;;;;;10.53;6.13;;;12.80;99.90;;;12.30;93.28;100608.63;5055858;28;20278;-76
2023/08/09 05:30:27;;;;;;;12.80;5.83;;;12.80;99.90;;;12.33;92.80;100610.97;5055825;28;20285;-75
2023/08/09 05:32:58;;;;;;;9.03;6.03;;;12.90;99.90;;;12.37;93.21;100616.84;5055411;28;20309;-75
2023/08/09 05:35:31;;;;;;;12.40;5.87;;;12.90;99.90;;;12.39;92.66;100612.97;5055757;28;20228;-75
2023/08/09 05:38:05;;;;;;;10.40;5.87;;;13.00;99.90;;;12.41;93.44;100621.69;5055577;28;20210;-75
2023/08/09 05:40:37;;;;;;;12.63;5.97;;;13.00;99.90;;;12.42;92.93;100615.31;5055631;28;20282;-75
2023/08/09 05:43:09;;;;;;;7.63;5.53;;;13.00;99.90;;;12.44;92.16;100613.28;5055518;28;20260;-75
2023/08/09 05:45:44;;;;;;;8.33;5.83;;;13.00;99.90;;;12.47;92.73;100617.44;5055422;28;20260;-75
2023/08/09 05:48:16;;;;;;;8.43;5.50;;;13.00;99.90;;;12.52;93.05;100620.47;5055472;28;20193;-75
2023/08/09 05:50:48;;;;;;;9.50;5.67;;;13.10;99.90;;;12.54;93.44;100619.28;5055149;28;20731;-75
2023/08/09 05:53:20;;;;;;;9.27;6.47;;;13.10;99.90;;;12.57;92.61;100624.28;5055371;28;20332;-75
2023/08/09 05:55:52;;;;;;;10.53;6.20;;;13.20;99.90;;;12.61;92.79;100625.59;5055392;28;20294;-75
2023/08/09 05:58:24;;;;;;;7.90;5.50;;;13.20;99.90;;;12.64;91.89;100633.31;5054944;28;20583;-75
2023/08/09 06:00:58;;;;;;;7.57;5.30;;;13.20;99.90;;;12.67;92.20;100630.28;5054969;28;20293;-75
2023/08/09 06:03:29;;;;;;;7.57;5.80;;;13.30;99.90;;;12.70;91.54;100637.97;5055161;28;20275;-75
2023/08/09 06:06:01;;;;;;;7.87;5.80;;;13.40;99.90;;;12.73;91.75;100644.03;5055185;28;20190;-75
2023/08/09 06:08:34;;;;;;;5.40;4.80;;;13.40;99.90;;;12.78;91.46;100641.63;5055118;28;20236;-75
2023/08/09 06:11:06;;;;;;;10.03;5.70;;;13.40;99.90;;;12.82;91.48;100653.69;5054780;28;20233;-75
2023/08/09 06:13:38;;;;;;;6.80;5.23;;;13.50;99.90;;;12.86;90.84;100649.66;5054942;28;20230;-75
2023/08/09 06:16:11;;;;;;;6.23;4.67;;;13.50;99.90;;;12.88;90.08;100647.59;5054688;28;20281;-75
2023/08/09 06:18:43;;;;;;;7.90;4.63;;;13.50;99.90;;;12.89;89.34;100649.28;5054862;28;20300;-75
2023/08/09 06:21:15;;;;;;;10.43;4.70;;;13.50;99.90;;;12.94;90.42;100653.13;5054861;28;20194;-75
2023/08/09 06:23:47;;;;;;;6.47;4.27;;;13.60;99.90;;;13.00;89.84;100656.97;5054378;28;20644;-75
2023/08/09 06:26:19;;;;;;;7.47;4.23;;;13.60;99.90;;;13.03;89.85;100661.97;5054061;28;20281;-75
2023/08/09 06:28:51;;;;;;;7.97;3.90;;;13.70;99.90;;;13.06;89.17;100658.91;5054541;28;20222;-75
2023/08/09 06:31:24;;;;;;;6.10;3.97;;;13.60;99.90;;;13.12;87.18;100669.00;5054809;28;20273;-75
2023/08/09 06:33:56;;;;;;;6.00;3.50;;;13.70;99.90;;;13.15;87.18;100661.41;5054609;28;20252;-75
2023/08/09 06:36:28;;;;;;;9.57;3.80;;;13.80;99.90;;;13.23;87.55;100668.59;5055463;28;20281;-74
2023/08/09 06:39:00;;;;;;;5.00;3.50;;;13.90;99.90;;;13.28;86.00;100676.13;5054146;28;20269;-74
2023/08/09 06:41:32;;;;;;;6.43;3.30;;;13.90;99.90;;;13.30;85.84;100664.16;5054455;28;20194;-74
2023/08/09 06:44:05;;;;;;;5.00;3.00;;;13.90;99.90;;;13.34;86.63;100664.63;5054334;28;20241;-74
2023/08/09 06:46:39;;;;;;;8.10;3.40;;;14.00;99.90;;;13.40;84.79;100672.81;5054686;28;20296;-74
2023/08/09 06:49:11;;;;;;;7.57;3.53;;;14.10;99.90;;;13.48;83.86;100678.16;5054294;28;20186;-74
2023/08/09 06:51:43;;;;;;;5.80;3.30;;;14.10;99.90;;;13.52;83.26;100679.47;5054326;28;20273;-74
2023/08/09 06:54:14;;;;;;;5.87;3.03;;;14.20;99.90;;;13.56;82.66;100690.69;5054204;28;20230;-74
2023/08/09 06:56:46;;;;;;;4.10;2.70;;;14.20;99.90;;;13.59;83.19;100688.47;5053806;28;20632;-74
2023/08/09 06:59:19;;;;;;;4.47;3.27;;;14.20;99.90;;;13.64;82.02;100696.84;5054092;28;20211;-74
2023/08/09 07:01:52;;;;;;;5.63;2.93;;;14.20;99.90;;;13.70;82.62;100700.63;5054147;28;20229;-74
2023/08/09 07:04:25;;;;;;;6.60;2.90;;;14.30;99.90;;;13.75;82.92;100708.19;5054043;28;20186;-74
2023/08/09 07:06:57;;;;;;;4.43;2.80;;;14.40;99.90;;;13.81;82.31;100710.97;5053710;28;20686;-74
2023/08/09 07:09:29;;;;;;;7.73;3.00;;;14.50;99.90;;;13.84;80.82;100713.31;5053969;28;20265;-74
2023/08/09 07:12:00;;;;;;;9.50;3.20;;;14.50;99.90;;;13.89;81.04;100704.69;5053814;28;20304;-75
2023/08/09 07:14:32;;;;;;;6.10;3.00;;;14.50;99.90;;;13.93;81.78;100716.75;5053899;28;20186;-75
2023/08/09 07:17:05;;;;;;;4.33;2.70;;;14.60;99.90;;;14.00;80.20;100715.03;5053865;28;20200;-75
2023/08/09 07:19:37;;;;;;;4.93;2.70;;;14.70;99.90;;;14.04;79.36;100709.06;5053713;28;20242;-75
2023/08/09 07:22:09;;;;;;;7.23;2.50;;;14.70;99.90;;;14.17;79.79;100721.91;5053736;28;20194;-75
2023/08/09 07:24:41;;;;;;;5.23;2.43;;;14.80;99.90;;;14.22;78.65;100723.03;5053775;28;20237;-75
2023/08/09 07:27:13;;;;;;;5.53;2.67;;;14.90;99.90;;;14.28;78.84;100724.13;5053432;28;20656;-75
2023/08/09 07:29:45;;;;;;;4.37;2.40;;;14.90;99.90;;;14.28;77.14;100721.44;5053350;28;20190;-75
2023/08/09 07:32:18;;;;;;;6.50;2.90;;;14.90;99.90;;;14.27;78.41;100727.88;5053233;28;20285;-75
2023/08/09 07:34:50;;;;;;;5.57;2.60;;;14.90;99.90;;;14.28;78.38;100729.53;5053651;28;20282;-75
2023/08/09 07:37:22;;;;;;;6.73;2.87;;;14.90;99.90;;;14.41;77.23;100731.63;5053477;28;20194;-75
2023/08/09 07:39:54;;;;;;;4.67;2.57;;;15.00;99.90;;;14.44;78.28;100734.78;5053329;28;20216;-75
2023/08/09 07:42:25;;;;;;;6.00;2.50;;;15.10;99.90;;;14.51;74.91;100730.31;5053440;28;20222;-75
2023/08/09 07:44:58;;;;;;;8.00;2.70;;;15.10;99.90;;;14.58;77.05;100738.50;5053444;28;20191;-75
2023/08/09 07:47:31;;;;;;;7.33;2.40;;;15.20;99.90;;;14.58;76.79;100736.66;5053106;28;20294;-75
2023/08/09 07:50:08;;;;;;;6.73;2.93;;;15.20;99.90;;;14.65;75.49;100742.97;5053416;28;20213;-75
2023/08/09 07:52:40;;;;;;;4.83;2.27;;;15.30;99.90;;;14.76;73.62;100738.13;5053315;28;20232;-75
2023/08/09 07:55:15;;;;;;;4.10;2.40;;;15.40;99.90;;;14.85;75.73;100748.59;5053026;28;20197;-75
2023/08/09 07:57:47;;;;;;;7.17;2.20;;;15.40;99.90;;;14.87;75.49;100751.09;5053287;28;20225;-75
2023/08/09 08:00:20;;;;;;;5.30;2.10;;;15.50;99.90;;;14.98;74.15;100748.78;5053268;28;20238;-75
2023/08/09 08:02:58;;;;;;;6.37;2.30;;;15.60;99.90;;;15.05;73.51;100751.53;5053186;28;20230;-75
2023/08/09 08:05:30;;;;;;;7.50;2.40;;;15.70;99.90;;;15.09;73.55;100744.75;5052886;28;20233;-75
2023/08/09 08:08:02;;;;;;;5.43;2.23;;;15.70;99.90;;;15.08;74.18;100754.69;5053163;28;20220;-75
2023/08/09 08:10:34;;;;;;;4.67;2.00;;;15.70;99.90;;;15.12;74.79;100752.47;5052922;28;20662;-75
2023/08/09 08:13:05;;;;;;;5.23;2.20;;;15.80;99.90;;;15.20;73.83;100768.53;5053020;28;20233;-75
2023/08/09 08:15:39;;;;;;;3.87;2.00;;;15.80;99.90;;;15.17;74.63;100752.75;5052721;28;20281;-75
2023/08/09 08:18:13;;;;;;;3.77;2.20;;;15.80;99.90;;;15.31;71.54;100768.03;5051859;28;20213;-75
2023/08/09 08:20:45;;;;;;;6.90;2.30;;;15.90;99.90;;;15.28;72.68;100784.59;5051250;28;20216;-75
2023/08/09 08:23:19;;;;;;;8.07;2.07;;;15.90;99.90;;;15.26;71.31;100773.16;5053119;28;20253;-75
2023/08/09 08:25:51;;;;;;;4.40;1.73;;;15.90;99.90;;;15.33;72.07;100774.09;5052818;28;20607;-75
2023/08/09 08:28:23;;;;;;;6.93;2.20;;;16.00;99.90;;;15.40;72.76;100775.00;5052858;28;20664;-75
2023/08/09 08:30:55;;;;;;;4.43;2.00;;;16.10;99.90;;;15.41;70.45;100776.66;5053194;28;20191;-76
2023/08/09 08:33:28;;;;;;;6.20;2.20;;;16.10;99.90;;;15.44;72.50;100776.28;5053048;28;20225;-76
2023/08/09 08:36:01;;;;;;;6.90;2.13;;;16.10;99.90;;;15.47;72.06;100777.78;5053113;28;20611;-76
2023/08/09 08:38:54;;;;;;;7.07;2.17;;;16.10;99.90;;;15.53;71.92;100791.38;5052920;28;20213;-76
2023/08/09 08:41:27;;;;;;;4.27;1.83;;;16.10;99.90;;;15.59;70.78;100787.06;5052679;28;20656;-76
2023/08/09 08:44:01;;;;;;;6.67;2.13;;;16.20;99.90;;;15.59;69.44;100790.59;5053022;28;20264;-76
2023/08/09 08:46:34;;;;;;;6.37;1.77;;;16.20;99.90;;;15.66;69.76;100788.78;5052812;28;20279;-76
2023/08/09 08:49:12;;;;;;;3.63;1.80;;;16.30;99.90;;;15.78;68.72;100796.38;5053070;28;20241;-75
2023/08/09 08:51:48;;;;;;;4.23;2.00;;;16.40;99.90;;;15.89;71.50;100787.78;5056021;28;20734;-75
2023/08/09 08:54:22;;;;;;;4.03;1.47;;;16.50;99.90;;;15.99;68.22;100797.19;5056327;28;20312;-76
2023/08/09 08:56:57;;;;;;;6.90;1.67;;;16.60;99.90;;;16.06;68.15;100802.69;5056340;28;20194;-76
2023/08/09 08:59:34;;;;;;;5.43;1.97;;;16.70;99.90;;;16.10;69.32;100787.75;5056491;28;20297;-76
2023/08/09 09:02:08;;;;;;;4.00;1.60;;;16.70;99.90;;;16.14;66.86;100789.88;5056430;28;20370;-76
2023/08/09 09:04:42;;;;;;;5.77;1.60;;;16.70;99.90;;;16.20;67.29;100790.94;5058028;28;20197;-76
2023/08/09 09:07:14;;;;;;;4.83;1.73;;;16.80;99.90;;;16.35;65.14;100786.28;5056371;28;20315;-76
2023/08/09 09:10:03;;;;;;;3.77;1.80;;;16.90;99.90;;;16.41;66.76;100785.50;5056518;28;20290;-76
2023/08/09 09:12:35;;;;;;;4.10;1.60;;;17.00;99.90;;;16.55;65.34;100794.53;5056280;28;20230;-76
2023/08/09 09:15:11;;;;;;;4.10;1.43;;;17.20;99.90;;;16.54;63.69;100792.88;5055993;28;20648;-75
2023/08/09 09:17:46;;;;;;;3.23;1.80;;;17.20;99.90;;;16.60;63.56;100792.13;5056178;28;20193;-75
2023/08/09 09:20:23;;;;;;;6.20;1.70;;;17.20;99.90;;;16.65;64.03;100792.34;5055998;28;20619;-75
2023/08/09 09:22:56;;;;;;;6.40;1.80;;;17.30;99.90;;;16.72;62.62;100791.34;5055926;28;20329;-75
2023/08/09 09:25:28;;;;;;;3.50;1.60;;;17.40;99.90;;;16.63;64.27;100800.66;5056106;28;20286;-75
2023/08/09 09:28:01;;;;;;;4.80;1.77;;;17.20;99.90;;;16.73;62.99;100797.59;5056010;28;20225;-76
2023/08/09 09:30:33;;;;;;;5.00;1.63;;;17.30;99.90;;;16.86;64.01;100788.72;5055962;28;20278;-76
2023/08/09 09:33:08;;;;;;;2.87;1.30;;;17.40;99.90;;;16.92;61.61;100794.16;5055791;28;20378;-76
2023/08/09 09:35:43;;;;;;;4.43;1.50;;;17.50;99.80;;;17.14;60.42;100787.63;5055768;28;20275;-76
2023/08/09 09:38:15;;;;;;;3.43;1.60;;;17.70;99.80;;;17.22;59.75;100787.47;5055718;28;20198;-76
2023/08/09 09:40:47;;;;;;;2.80;1.40;;;17.80;98.80;;;17.31;59.44;100788.09;5055317;28;20576;-76
2023/08/09 09:43:20;;;;;;;7.83;1.37;;;17.80;99.10;;;17.48;57.99;100794.81;5055621;28;20230;-74
2023/08/09 09:45:57;;;;;;;3.43;1.53;;;18.00;97.60;;;17.41;60.71;100793.97;5055171;28;20191;-75
2023/08/09 09:48:30;;;;;;;4.17;2.00;;;18.00;99.10;;;17.45;60.18;100784.41;5055534;28;20233;-75
2023/08/09 09:51:04;;;;;;;2.30;1.37;;;18.00;99.20;;;17.44;57.65;100792.72;5055495;28;20191;-74
2023/08/09 09:53:38;;;;;;;1.87;1.23;;;18.00;97.00;;;17.55;58.59;100790.25;5055063;28;20700;-74
2023/08/09 09:56:10;;;;;;;3.43;1.50;;;18.10;97.80;;;17.76;58.65;100786.59;5055403;28;20191;-74
2023/08/09 09:58:42;;;;;;;3.10;1.53;;;18.30;98.30;;;17.68;57.85;100798.44;5055014;28;20644;-74
2023/08/09 10:01:18;;;;;;;2.90;1.60;;;18.30;96.90;;;17.66;58.46;100797.00;5054707;28;20249;-74
2023/08/09 10:03:54;;;;;;;3.27;1.47;;;18.20;97.70;;;17.82;57.70;100799.31;5054850;28;20711;-74
2023/08/09 10:06:32;;;;;;;3.23;1.63;;;18.30;97.30;;;17.77;58.93;100811.81;5055185;28;20186;-75
2023/08/09 10:09:05;;;;;;;3.40;1.60;;;18.30;98.20;;;17.84;57.99;100809.94;5054850;28;20617;-75
2023/08/09 10:11:41;;;;;;;2.03;1.37;;;18.40;97.30;;;17.77;57.51;100809.09;5054848;28;20689;-75
2023/08/09 10:14:16;;;;;;;4.40;2.67;;;18.30;96.90;;;17.66;57.94;100813.22;5054985;28;20226;-75
2023/08/09 10:16:51;;;;;;;4.23;1.50;;;18.20;96.90;;;17.58;57.01;100816.94;5054998;28;20196;-75
2023/08/09 10:19:34;;;;;;;4.57;1.70;;;18.10;96.80;;;17.65;58.88;100817.81;5054915;28;20206;-75
2023/08/09 10:22:11;;;;;;;4.63;1.70;;;18.20;98.10;;;17.71;58.10;100811.56;5055102;28;20214;-75
2023/08/09 10:24:51;;;;;;;4.97;1.87;;;18.20;97.30;;;17.82;60.15;100812.00;5054812;28;20197;-75
2023/08/09 10:27:51;;;;;;;4.23;1.90;;;18.40;98.40;;;18.02;57.42;100818.28;5054808;28;20209;-75
2023/08/09 10:30:29;;;;;;;2.03;1.47;;;18.60;96.90;;;18.03;57.44;100825.38;5054713;28;20217;-75
2023/08/09 10:33:02;;;;;;;2.57;1.30;;;18.60;96.80;;;17.97;56.63;100826.22;5054293;28;20218;-75
2023/08/09 10:35:49;;;;;;;1.70;1.37;;;18.50;96.30;;;17.90;55.93;100826.19;5054294;28;20194;-75
2023/08/09 10:38:39;;;;;;;2.30;1.30;;;18.40;95.90;;;17.93;57.02;100825.78;5054229;28;20635;-75